Time;durP1;ratioP1;P1;durP2;ratioP2;P2;SDS_P1;SDS_P2;PMS_P1;PMS_P2;Temp;Humidity;BMP_temperature;BMP_pressure;BME280_temperature;BME280_humidity;BME280_pressure;Samples;Min_cycle;Max_cycle;Signal;HPM_P1;HPM_P2
2023/10/12 00:00:28;;;;;;;6.33;3.15;;;;;;;8.83;44.21;101355.63;1667113;86;21287;-82
2023/10/12 00:03:34;;;;;;;5.97;3.60;;;;;;;8.70;44.53;101349.05;1667007;86;21327;-81
2023/10/12 00:06:43;;;;;;;7.58;3.90;;;;;;;8.77;44.56;101354.33;1665301;86;21314;-81
2023/10/12 00:10:00;;;;;;;5.95;3.55;;;;;;;8.77;44.62;101357.56;1665235;86;21357;-81
2023/10/12 00:12:59;;;;;;;9.73;3.80;;;;;;;8.62;44.95;101358.45;1680657;85;21354;-82
2023/10/12 00:16:06;;;;;;;6.20;3.62;;;;;;;8.55;45.33;101354.54;1690918;84;21334;-82
2023/10/12 00:19:12;;;;;;;6.95;3.40;;;;;;;8.67;45.32;101354.81;1715432;83;21315;-82
2023/10/12 00:22:17;;;;;;;8.95;3.80;;;;;;;8.79;45.13;101355.04;1696387;84;21325;-82
2023/10/12 00:25:23;;;;;;;8.50;4.37;;;;;;;8.77;45.23;101353.47;1713758;83;21307;-81
2023/10/12 00:28:38;;;;;;;9.93;4.80;;;;;;;8.82;45.11;101356.14;1697568;84;21323;-82
2023/10/12 00:31:43;;;;;;;6.37;3.58;;;;;;;8.90;44.92;101350.85;1715472;83;21323;-81
2023/10/12 00:34:52;;;;;;;10.43;4.40;;;;;;;8.93;44.94;101349.69;1696945;84;21315;-81
2023/10/12 00:38:01;;;;;;;8.68;4.72;;;;;;;9.05;44.66;101355.91;1715307;83;21315;-82
2023/10/12 00:41:07;;;;;;;7.83;4.05;;;;;;;9.04;44.55;101350.09;1696721;84;21339;-81
2023/10/12 00:44:12;;;;;;;13.60;6.28;;;;;;;9.11;44.19;101353.46;1716143;83;21239;-81
2023/10/12 00:48:07;;;;;;;8.35;4.17;;;;;;;9.03;44.28;101350.56;1698067;84;21307;-82
2023/10/12 00:50:29;;;;;;;5.50;3.40;;;;;;;9.07;44.03;101352.02;1700034;83;21318;-82
2023/10/12 00:53:37;;;;;;;7.20;3.40;;;;;;;8.88;44.01;101342.43;1687135;85;21323;-82
2023/10/12 00:56:43;;;;;;;9.23;3.67;;;;;;;8.81;44.16;101335.32;1691524;83;21317;-81
2023/10/12 00:59:51;;;;;;;5.97;4.20;;;;;;;8.85;44.22;101338.13;1704198;83;21323;-81
2023/10/12 01:03:27;;;;;;;7.30;3.58;;;;;;;8.83;44.44;101341.48;1728239;83;21298;-81
2023/10/12 01:09:18;;;;;;;6.83;3.27;;;;;;;8.70;45.08;101344.96;1657879;84;21318;-82
2023/10/12 01:11:59;;;;;;;7.97;3.92;;;;;;;8.65;45.21;101344.02;1694387;84;21997;-81
2023/10/12 01:14:54;;;;;;;9.40;4.65;;;;;;;8.63;45.38;101347.90;1695268;84;21346;-81
2023/10/12 01:18:03;;;;;;;7.50;4.58;;;;;;;8.77;45.22;101341.20;1702545;84;21298;-82
2023/10/12 01:21:11;;;;;;;6.85;4.28;;;;;;;8.71;45.46;101343.98;1725603;82;21377;-81
2023/10/12 01:24:17;;;;;;;11.05;4.35;;;;;;;8.81;45.37;101344.02;1711697;83;21319;-81
2023/10/12 01:27:25;;;;;;;6.97;4.58;;;;;;;8.65;45.63;101346.74;1738266;82;21405;-82
2023/10/12 01:30:35;;;;;;;7.90;4.22;;;;;;;8.57;45.95;101340.28;1711574;83;21299;-81
2023/10/12 01:33:41;;;;;;;5.90;3.58;;;;;;;8.50;46.16;101342.67;1739732;82;21294;-81
2023/10/12 01:36:49;;;;;;;6.80;3.37;;;;;;;8.43;46.32;101341.52;1685539;83;21216;-81
2023/10/12 01:43:14;;;;;;;5.92;3.55;;;;;;;8.49;46.49;101330.05;1683947;85;21339;-81
2023/10/12 01:46:21;;;;;;;5.30;3.95;;;;;;;8.39;46.82;101328.66;1680094;85;21243;-82
2023/10/12 01:49:25;;;;;;;6.10;4.00;;;;;;;8.42;46.96;101328.39;1683944;85;21905;-82
2023/10/12 01:52:30;;;;;;;11.78;4.97;;;;;;;8.54;46.81;101326.91;1698934;84;21323;-81
2023/10/12 01:55:35;;;;;;;9.55;5.35;;;;;;;8.55;46.73;101330.85;1694840;84;21287;-81
2023/10/12 01:58:44;;;;;;;11.68;6.30;;;;;;;8.62;46.49;101327.09;1689424;83;21338;-81
2023/10/12 02:02:14;;;;;;;16.15;9.25;;;;;;;8.53;46.67;101315.65;1656190;86;21369;-81
2023/10/12 02:04:58;;;;;;;19.27;11.70;;;;;;;8.53;46.60;101315.65;1663236;83;21331;-81
2023/10/12 02:08:05;;;;;;;22.37;14.90;;;;;;;8.52;46.64;101306.61;1729558;83;21334;-82
2023/10/12 02:11:12;;;;;;;34.38;21.37;;;;;;;8.56;46.64;101298.52;1718446;83;21897;-82
2023/10/12 02:14:27;;;;;;;25.90;16.75;;;;;;;8.55;46.76;101305.45;1731058;83;21331;-82
2023/10/12 02:17:28;;;;;;;21.90;12.65;;;;;;;8.60;46.82;101304.53;1716865;83;21323;-82
2023/10/12 02:20:38;;;;;;;15.00;9.05;;;;;;;8.66;46.83;101302.13;1718664;83;21345;-81
2023/10/12 02:27:00;;;;;;;16.20;8.73;;;;;;;9.02;46.12;101293.41;1700375;84;21341;-81
2023/10/12 02:30:07;;;;;;;14.60;9.35;;;;;;;8.58;47.18;101291.55;1701065;84;21310;-82
2023/10/12 02:33:17;;;;;;;11.60;7.67;;;;;;;8.30;47.77;101294.51;1700974;84;22131;-82
2023/10/12 02:36:19;;;;;;;16.55;9.10;;;;;;;8.33;48.01;101291.02;1687849;84;21968;-82
2023/10/12 02:39:24;;;;;;;14.40;8.53;;;;;;;8.35;47.98;101293.59;1683706;85;21695;-81
2023/10/12 02:42:41;;;;;;;18.00;9.90;;;;;;;8.50;47.55;101291.37;1682300;85;21364;-82
2023/10/12 02:45:49;;;;;;;17.05;9.53;;;;;;;8.52;47.59;101287.52;1694075;84;21287;-81
2023/10/12 02:48:57;;;;;;;20.77;10.30;;;;;;;8.74;47.34;101298.67;1700077;84;22368;-81
2023/10/12 02:52:07;;;;;;;20.82;10.48;;;;;;;8.87;47.02;101293.83;1682699;84;21917;-81
2023/10/12 02:58:24;;;;;;;16.48;10.48;;;;;;;8.76;47.09;101296.69;1688712;83;21344;-81
2023/10/12 03:01:29;;;;;;;16.42;10.90;;;;;;;8.79;46.87;101303.20;1706446;84;21362;-82
2023/10/12 03:04:39;;;;;;;15.48;8.75;;;;;;;8.71;46.94;101303.07;1708073;84;21303;-82
2023/10/12 03:07:44;;;;;;;18.55;10.68;;;;;;;8.62;46.85;101309.36;1707288;84;21355;-81
2023/10/12 03:11:08;;;;;;;18.70;10.95;;;;;;;8.55;46.73;101304.09;1708338;84;21327;-81
2023/10/12 03:14:26;;;;;;;18.92;11.70;;;;;;;8.42;46.92;101302.49;1707561;84;21374;-81
2023/10/12 03:17:26;;;;;;;19.50;11.88;;;;;;;8.48;46.90;101301.06;1707601;84;21324;-81
2023/10/12 03:20:35;;;;;;;21.20;13.83;;;;;;;8.49;46.98;101300.06;1718698;82;21302;-82
2023/10/12 03:23:39;;;;;;;24.12;15.53;;;;;;;8.55;47.02;101295.91;1711469;83;21291;-82
2023/10/12 03:27:11;;;;;;;19.37;12.23;;;;;;;8.52;47.10;101298.94;1690830;83;21331;-81
2023/10/12 03:30:10;;;;;;;29.52;13.53;;;;;;;8.35;47.52;101296.31;1705418;84;21339;-81
2023/10/12 03:33:15;;;;;;;15.65;9.55;;;;;;;8.23;47.67;101286.50;1709689;84;21297;-81
2023/10/12 03:36:23;;;;;;;19.17;11.38;;;;;;;8.31;47.72;101293.00;1728795;82;21294;-82
2023/10/12 03:39:31;;;;;;;19.73;12.00;;;;;;;8.45;47.52;101288.56;1711701;83;21299;-81
2023/10/12 03:42:42;;;;;;;17.27;10.95;;;;;;;8.52;47.40;101293.48;1737602;82;21340;-82
2023/10/12 03:46:00;;;;;;;16.90;10.45;;;;;;;8.57;47.26;101288.47;1713130;83;22586;-82
2023/10/12 03:49:57;;;;;;;19.52;11.38;;;;;;;8.54;47.25;101290.09;1739273;82;21896;-82
2023/10/12 03:52:13;;;;;;;15.00;10.60;;;;;;;8.39;47.55;101290.48;1705577;83;21346;-82
2023/10/12 03:55:26;;;;;;;17.37;10.32;;;;;;;8.38;47.61;101291.49;1718348;83;21315;-82
2023/10/12 03:58:25;;;;;;;20.32;10.15;;;;;;;8.51;47.27;101279.45;1717751;83;21323;-82
2023/10/12 04:01:41;;;;;;;14.45;9.05;;;;;;;8.52;46.98;101280.70;1717033;83;21346;-79
2023/10/12 04:04:59;;;;;;;17.48;9.40;;;;;;;8.45;46.87;101284.47;1718486;83;21318;-82
2023/10/12 04:17:41;;;;;;;10.72;5.00;;;;;;;8.60;46.66;101270.44;1696196;83;22247;-82
2023/10/12 04:20:32;;;;;;;7.30;4.50;;;;;;;8.36;47.03;101268.94;1718625;83;21303;-82
2023/10/12 04:24:27;;;;;;;7.42;4.95;;;;;;;8.30;47.36;101264.53;1718577;83;21347;-82
2023/10/12 04:27:20;;;;;;;7.97;4.45;;;;;;;8.47;47.17;101258.92;1718416;83;21319;-82
2023/10/12 04:30:20;;;;;;;10.13;5.60;;;;;;;8.65;46.98;101266.79;1717495;83;21235;-82
2023/10/12 04:33:39;;;;;;;10.25;5.53;;;;;;;8.72;46.97;101269.84;1717185;83;21347;-82
2023/10/12 04:36:44;;;;;;;9.03;5.72;;;;;;;8.80;46.91;101264.51;1718478;83;21860;-82
2023/10/12 04:39:49;;;;;;;13.80;7.17;;;;;;;9.04;46.59;101275.05;1718510;83;21315;-82
2023/10/12 04:43:05;;;;;;;12.07;7.00;;;;;;;9.24;46.36;101274.03;1716966;83;21860;-82
2023/10/12 04:46:38;;;;;;;12.90;7.15;;;;;;;9.35;46.27;101276.59;1717075;83;21177;-82
2023/10/12 04:52:32;;;;;;;9.33;6.12;;;;;;;9.56;46.00;101281.05;1704776;83;21350;-82
2023/10/12 04:55:34;;;;;;;10.98;6.30;;;;;;;9.62;46.12;101279.95;1717413;83;21331;-82
2023/10/12 04:58:56;;;;;;;10.35;6.12;;;;;;;9.83;45.91;101278.38;1717885;83;21334;-83
2023/10/12 05:08:12;;;;;;;13.30;7.28;;;;;;;10.15;45.51;101283.45;1725893;83;22258;-83
2023/10/12 05:11:19;;;;;;;10.78;6.45;;;;;;;10.15;45.62;101278.49;1746153;82;21314;-83
2023/10/12 05:14:25;;;;;;;10.93;6.25;;;;;;;10.23;45.62;101279.98;1710158;83;21321;-83
2023/10/12 05:17:31;;;;;;;9.65;6.22;;;;;;;10.09;46.17;101275.86;1696648;84;21307;-83
2023/10/12 05:20:40;;;;;;;8.85;5.60;;;;;;;10.23;46.14;101279.98;1711606;83;21557;-83
2023/10/12 05:23:43;;;;;;;9.93;5.30;;;;;;;10.28;46.27;101281.78;1685664;85;21323;-83
2023/10/12 05:26:58;;;;;;;9.50;6.03;;;;;;;10.40;46.36;101283.83;1713747;83;21302;-83
2023/10/12 05:30:05;;;;;;;9.28;5.53;;;;;;;10.49;46.48;101282.41;1697362;83;21256;-82
2023/10/12 05:33:28;;;;;;;9.73;6.17;;;;;;;10.66;46.29;101282.59;1718769;82;21324;-83
2023/10/12 05:36:23;;;;;;;9.38;5.50;;;;;;;11.03;45.65;101287.96;1696056;83;21874;-82
2023/10/12 05:39:29;;;;;;;15.03;5.67;;;;;;;11.09;45.49;101287.84;1711470;82;21352;-83
2023/10/12 05:42:40;;;;;;;13.83;7.17;;;;;;;11.39;44.63;101294.82;1708853;83;21379;-84
2023/10/12 05:45:48;;;;;;;16.37;8.23;;;;;;;11.32;44.80;101293.20;1712168;82;22320;-83
2023/10/12 05:48:58;;;;;;;15.32;7.70;;;;;;;11.30;44.72;101291.14;1686066;82;21644;-84
2023/10/12 05:52:07;;;;;;;25.37;7.70;;;;;;;11.52;44.28;101287.03;1711557;82;21993;-84
2023/10/12 05:55:21;;;;;;;18.62;7.60;;;;;;;11.56;43.95;101291.69;1713191;82;22163;-84
2023/10/12 05:58:29;;;;;;;15.98;6.20;;;;;;;11.59;43.93;101287.27;1696616;82;21198;-87
2023/10/12 06:01:38;;;;;;;10.30;5.87;;;;;;;11.78;43.53;101277.48;1694590;82;21317;-84
2023/10/12 06:04:47;;;;;;;10.38;5.90;;;;;;;11.98;43.07;101286.38;1694140;83;21369;-82
2023/10/12 06:08:00;;;;;;;11.10;5.22;;;;;;;12.30;42.38;101284.33;1726791;82;21493;-85
2023/10/12 06:11:11;;;;;;;11.25;4.85;;;;;;;12.49;42.19;101285.44;1719126;82;21344;-85
2023/10/12 06:14:29;;;;;;;10.80;4.85;;;;;;;12.58;42.13;101283.59;1689016;83;21335;-84
2023/10/12 06:17:49;;;;;;;11.88;5.37;;;;;;;12.93;41.70;101289.35;1709127;83;21381;-84
2023/10/12 06:21:11;;;;;;;15.80;5.22;;;;;;;13.14;40.97;101279.28;1698417;83;21572;-85
2023/10/12 06:24:38;;;;;;;14.10;5.05;;;;;;;13.36;40.52;101281.92;1702569;83;21309;-83
2023/10/12 06:27:43;;;;;;;9.68;5.33;;;;;;;13.36;40.59;101284.67;1710142;83;21298;-84
2023/10/12 06:30:56;;;;;;;11.28;4.20;;;;;;;13.57;40.44;101285.52;1698393;83;21400;-84
2023/10/12 06:34:10;;;;;;;9.95;4.75;;;;;;;13.75;40.46;101275.20;1697622;83;21302;-84
2023/10/12 06:40:38;;;;;;;8.40;3.98;;;;;;;14.23;40.14;101270.62;1587229;89;21275;-84
2023/10/12 06:47:28;;;;;;;5.25;3.02;;;;;;;14.95;39.25;101262.20;1691907;83;21350;-84
2023/10/12 06:50:20;;;;;;;7.00;3.22;;;;;;;15.33;38.54;101265.05;1692827;83;21342;-84
2023/10/12 06:53:25;;;;;;;5.78;2.87;;;;;;;15.49;38.18;101265.45;1704694;83;21282;-83
2023/10/12 06:56:39;;;;;;;5.70;2.87;;;;;;;15.31;38.48;101265.23;1704137;83;21317;-81
2023/10/12 07:03:19;;;;;;;4.72;2.40;;;;;;;15.92;38.02;101266.62;1769873;79;21662;-81
2023/10/12 07:06:28;;;;;;;5.87;3.05;;;;;;;16.03;38.04;101269.43;1772132;79;22277;-81
2023/10/12 07:09:46;;;;;;;5.30;2.27;;;;;;;16.30;37.63;101266.02;1731057;80;21283;-81
2023/10/12 07:12:53;;;;;;;9.20;2.47;;;;;;;16.41;37.71;101263.30;1728948;81;21290;-81
2023/10/12 07:16:01;;;;;;;6.53;2.08;;;;;;;16.57;37.58;101260.87;1763257;79;22024;-84
2023/10/12 07:19:09;;;;;;;4.85;1.90;;;;;;;16.69;37.11;101262.59;1750787;80;21191;-83
2023/10/12 07:22:18;;;;;;;4.35;2.33;;;;;;;16.96;36.72;101256.38;1742061;79;21199;-82
2023/10/12 07:25:26;;;;;;;3.85;2.00;;;;;;;17.16;36.45;101246.05;1746299;79;21215;-82
2023/10/12 07:28:39;;;;;;;3.60;1.77;;;;;;;17.13;36.75;101252.00;1748604;79;21302;-83
2023/10/12 07:31:44;;;;;;;5.12;2.67;;;;;;;17.20;36.90;101248.76;1749294;79;21351;-83
2023/10/12 07:34:54;;;;;;;5.65;1.85;;;;;;;17.28;36.71;101252.78;1763563;79;21331;-84
2023/10/12 07:38:00;;;;;;;4.30;2.35;;;;;;;17.51;36.40;101249.28;1712511;81;21409;-81
2023/10/12 07:41:10;;;;;;;6.17;2.52;;;;;;;17.77;36.33;101237.59;1676521;83;21361;-83
2023/10/12 07:44:17;;;;;;;4.72;1.60;;;;;;;18.14;35.96;101240.52;1747973;80;21323;-83
2023/10/12 07:47:40;;;;;;;4.35;1.90;;;;;;;18.29;35.77;101233.47;1753574;79;21349;-84
2023/10/12 07:50:41;;;;;;;8.20;2.20;;;;;;;18.30;35.43;101238.47;1732681;79;21291;-82
2023/10/12 07:54:01;;;;;;;5.50;1.50;;;;;;;18.22;35.88;101239.52;1743146;79;21297;-82
2023/10/12 07:57:02;;;;;;;7.30;2.77;;;;;;;18.34;35.97;101236.47;1758312;79;21435;-82
2023/10/12 08:03:18;;;;;;;3.95;2.02;;;;;;;18.72;35.31;101236.57;1722173;81;21364;-83
2023/10/12 08:07:07;;;;;;;5.05;2.10;;;;;;;18.85;35.36;101235.23;1718474;81;21949;-83
2023/10/12 08:09:51;;;;;;;4.47;2.30;;;;;;;19.06;35.09;101236.48;1715712;81;21936;-83
2023/10/12 08:12:54;;;;;;;2.72;1.50;;;;;;;19.18;34.83;101236.70;1724623;81;21306;-83
2023/10/12 08:16:04;;;;;;;4.05;1.95;;;;;;;19.11;34.78;101238.62;1724383;81;21334;-83
2023/10/12 08:19:28;;;;;;;;;;;;;;;18.96;34.91;101229.11;1717663;81;21434;-83
2023/10/12 08:22:36;;;;;;;3.60;2.15;;;;;;;18.98;34.82;101225.58;1722655;81;20877;-83
2023/10/12 08:25:39;;;;;;;4.70;1.80;;;;;;;18.98;34.85;101221.42;1718148;81;21243;-84
2023/10/12 08:28:55;;;;;;;4.67;2.08;;;;;;;19.20;33.86;101220.73;1723283;81;22351;-84
2023/10/12 08:32:15;;;;;;;4.72;2.05;;;;;;;19.27;33.32;101223.50;1674892;83;22397;-83
2023/10/12 08:35:39;;;;;;;;;;;;;;;19.36;33.28;101218.06;1723014;81;21396;-82
2023/10/12 08:38:40;;;;;;;4.65;2.40;;;;;;;19.27;33.66;101216.03;1722779;81;20726;-82
2023/10/12 08:42:29;;;;;;;4.15;2.05;;;;;;;19.31;33.00;101207.61;1712669;80;21381;-84
2023/10/12 08:45:18;;;;;;;4.85;2.40;;;;;;;19.39;32.79;101208.80;1727373;81;21365;-82
2023/10/12 08:48:26;;;;;;;4.45;2.27;;;;;;;19.46;32.59;101206.01;1713267;81;22422;-84
2023/10/12 08:51:34;;;;;;;4.10;2.60;;;;;;;19.56;32.48;101205.05;1724190;81;21310;-83
2023/10/12 08:54:42;;;;;;;4.05;2.17;;;;;;;19.76;32.21;101194.48;1714987;81;21339;-83
2023/10/12 08:58:18;;;;;;;3.10;2.10;;;;;;;19.54;32.49;101196.63;1729540;81;22336;-83
2023/10/12 09:01:26;;;;;;;7.75;2.15;;;;;;;19.63;32.28;101187.91;1723514;81;21306;-83
2023/10/12 09:04:35;;;;;;;7.05;2.52;;;;;;;19.64;32.27;101179.05;1718876;81;21317;-82
2023/10/12 09:07:45;;;;;;;6.90;3.17;;;;;;;19.53;32.53;101186.61;1730192;81;21332;-82
2023/10/12 09:11:59;;;;;;;5.33;2.73;;;;;;;19.71;32.38;101177.63;1727626;81;21306;-82
2023/10/12 09:14:13;;;;;;;5.45;2.80;;;;;;;19.59;32.49;101176.88;1697011;81;21188;-82
2023/10/12 09:17:40;;;;;;;4.65;3.12;;;;;;;19.30;33.30;101167.61;1717595;81;21297;-84
2023/10/12 09:20:58;;;;;;;5.12;2.60;;;;;;;19.35;33.62;101162.27;1732972;81;21357;-83
2023/10/12 09:24:14;;;;;;;4.15;2.27;;;;;;;19.46;33.06;101144.97;1728164;81;21350;-82
2023/10/12 09:27:26;;;;;;;8.68;3.00;;;;;;;19.73;33.00;101140.82;1696229;83;21308;-84
2023/10/12 09:30:26;;;;;;;6.47;2.70;;;;;;;19.69;33.06;101128.44;1715692;81;22457;-84
2023/10/12 09:36:56;;;;;;;2.70;1.80;;;;;;;19.80;33.17;101113.88;1648408;85;21336;-84
2023/10/12 09:40:23;;;;;;;;;;;;;;;19.81;33.25;101103.97;1724554;81;21315;-84
2023/10/12 09:43:15;;;;;;;3.62;2.02;;;;;;;19.99;32.60;101086.59;1666957;84;20247;-84
2023/10/12 09:46:27;;;;;;;3.20;1.90;;;;;;;20.07;32.21;101084.96;1680556;82;21989;-84
2023/10/12 09:49:37;;;;;;;3.52;1.90;;;;;;;20.03;31.84;101076.75;1679940;82;21311;-84
2023/10/12 09:52:46;;;;;;;4.42;1.80;;;;;;;20.07;31.68;101063.28;1724303;81;21275;-84
2023/10/12 09:56:03;;;;;;;5.15;1.98;;;;;;;20.06;31.59;101049.09;1716420;81;21297;-83
2023/10/12 09:59:13;;;;;;;7.00;1.80;;;;;;;20.00;32.03;101038.88;1711619;81;236385;-83
2023/10/12 10:02:29;;;;;;;7.47;2.40;;;;;;;20.07;31.86;101037.75;1720518;81;21321;-84
2023/10/12 10:05:52;;;;;;;4.67;2.02;;;;;;;20.17;31.40;101032.56;1685382;83;21422;-85
2023/10/12 10:09:09;;;;;;;4.65;1.92;;;;;;;20.39;31.40;101026.14;1710523;80;21326;-84
2023/10/12 10:12:08;;;;;;;3.47;1.82;;;;;;;20.51;31.22;101014.33;1719705;81;22382;-84
2023/10/12 10:15:20;;;;;;;8.78;2.67;;;;;;;20.47;30.53;101022.29;1718957;80;21306;-84
2023/10/12 10:18:21;;;;;;;6.20;2.42;;;;;;;20.67;30.43;101016.03;1681248;80;21179;-82
2023/10/12 10:21:31;;;;;;;5.15;2.45;;;;;;;20.92;29.27;101013.25;1713662;80;22337;-85
2023/10/12 10:24:55;;;;;;;5.65;2.98;;;;;;;20.82;29.38;100996.78;1718319;80;22308;-83
2023/10/12 10:28:06;;;;;;;5.78;2.55;;;;;;;20.88;29.14;100980.56;1725225;80;21364;-83
2023/10/12 10:31:11;;;;;;;5.87;2.20;;;;;;;20.85;29.83;100978.27;1721847;80;21361;-84
2023/10/12 10:34:24;;;;;;;6.10;2.50;;;;;;;20.74;29.87;100970.64;1713906;81;21279;-84
2023/10/12 10:37:58;;;;;;;;;;;;;;;21.11;30.10;100971.58;1703137;81;21364;-83
2023/10/12 10:41:38;;;;;;;4.00;2.00;;;;;;;21.05;30.42;100967.78;1700688;82;20271;-84
2023/10/12 10:44:29;;;;;;;4.92;1.62;;;;;;;21.12;30.60;100962.98;1698416;82;21377;-82
2023/10/12 10:47:34;;;;;;;5.47;2.10;;;;;;;21.21;30.53;100968.27;1706001;80;22487;-83
2023/10/12 10:50:49;;;;;;;4.15;1.85;;;;;;;21.30;30.42;100963.55;1699622;82;22554;-83
2023/10/12 10:53:53;;;;;;;7.03;1.98;;;;;;;21.53;30.02;100951.76;1710321;81;21379;-83
2023/10/12 10:56:59;;;;;;;4.08;2.10;;;;;;;21.59;30.33;100952.20;1672536;81;22099;-83
2023/10/12 11:00:16;;;;;;;4.33;2.35;;;;;;;21.60;30.71;100950.30;1707574;80;21352;-82
2023/10/12 11:03:13;;;;;;;11.70;2.20;;;;;;;21.51;30.72;100951.16;1712794;81;21992;-82
2023/10/12 11:06:22;;;;;;;10.70;2.42;;;;;;;21.64;31.06;100938.47;1710606;81;21353;-82
2023/10/12 11:09:54;;;;;;;2.92;1.50;;;;;;;21.80;30.87;100926.37;1710037;82;21850;-83
2023/10/12 11:12:42;;;;;;;3.90;1.80;;;;;;;21.81;30.89;100920.55;1725374;80;21307;-83
2023/10/12 11:15:50;;;;;;;3.90;1.90;;;;;;;21.43;31.71;100923.62;1693506;82;21302;-82
2023/10/12 11:18:57;;;;;;;2.92;1.60;;;;;;;21.28;32.00;100913.41;1672302;83;21346;-82
2023/10/12 11:22:03;;;;;;;4.45;2.10;;;;;;;21.38;32.03;100913.74;1684454;83;21384;-82
2023/10/12 11:25:09;;;;;;;5.87;2.05;;;;;;;21.40;32.01;100912.41;1691227;83;21354;-82
2023/10/12 11:28:28;;;;;;;5.05;1.90;;;;;;;21.39;32.11;100912.66;1685095;83;21373;-82
2023/10/12 11:31:36;;;;;;;6.60;2.22;;;;;;;21.34;32.34;100906.94;1698078;82;21384;-83
2023/10/12 11:34:53;;;;;;;4.92;1.92;;;;;;;21.47;32.44;100892.86;1714425;80;22690;-82
2023/10/12 11:37:59;;;;;;;11.20;2.22;;;;;;;21.48;32.55;100893.71;1712913;80;21513;-83
2023/10/12 11:41:20;;;;;;;5.75;2.30;;;;;;;21.50;32.76;100891.53;1699916;83;21314;-85
2023/10/12 11:44:31;;;;;;;3.85;1.92;;;;;;;21.52;32.91;100877.70;1664934;83;21316;-85
2023/10/12 11:47:39;;;;;;;5.17;2.05;;;;;;;21.64;33.10;100874.44;1674436;83;21417;-85
2023/10/12 11:50:48;;;;;;;6.62;2.95;;;;;;;21.78;33.13;100865.87;1719940;79;21384;-84
2023/10/12 11:53:55;;;;;;;5.92;3.42;;;;;;;22.24;32.93;100855.42;1710991;80;21358;-84
2023/10/12 11:57:03;;;;;;;8.88;3.87;;;;;;;22.28;32.79;100841.87;1726299;81;21648;-84
2023/10/12 12:00:53;;;;;;;7.45;3.42;;;;;;;22.12;32.97;100840.65;1712241;81;21354;-83
2023/10/12 12:03:19;;;;;;;6.10;3.02;;;;;;;22.26;32.98;100831.52;1652341;84;22015;-83
2023/10/12 12:06:25;;;;;;;9.88;3.67;;;;;;;21.92;33.48;100835.34;1689536;82;21405;-83
2023/10/12 12:09:32;;;;;;;7.85;3.40;;;;;;;21.79;33.61;100827.22;1641599;85;22582;-82
2023/10/12 12:12:38;;;;;;;9.90;3.80;;;;;;;22.09;33.49;100819.64;1705803;81;21873;-83
2023/10/12 12:15:45;;;;;;;9.40;2.90;;;;;;;22.07;33.60;100813.48;1708566;81;21397;-83
2023/10/12 12:18:58;;;;;;;14.38;4.30;;;;;;;21.95;33.77;100809.27;1706401;82;21374;-84
2023/10/12 12:22:05;;;;;;;10.40;4.62;;;;;;;22.15;33.37;100806.17;1707990;81;21365;-84
2023/10/12 12:25:31;;;;;;;9.83;4.47;;;;;;;22.11;33.27;100803.59;1709472;80;21911;-84
2023/10/12 12:28:32;;;;;;;8.95;3.12;;;;;;;22.03;33.56;100794.16;1703327;80;21342;-84
2023/10/12 12:31:38;;;;;;;10.50;2.93;;;;;;;21.68;34.37;100794.06;1711971;82;21357;-83
2023/10/12 12:34:47;;;;;;;6.95;3.47;;;;;;;21.68;34.35;100781.53;1701959;82;22230;-83
2023/10/12 12:38:00;;;;;;;7.00;3.30;;;;;;;21.58;34.41;100785.45;1680016;83;21954;-83
2023/10/12 12:41:05;;;;;;;10.78;3.08;;;;;;;21.75;34.17;100775.88;1674288;83;21644;-83
2023/10/12 12:44:10;;;;;;;7.25;3.00;;;;;;;21.78;34.24;100772.05;1667423;83;21357;-84
2023/10/12 12:47:23;;;;;;;6.50;2.67;;;;;;;21.86;34.21;100775.89;1721445;81;21293;-84
2023/10/12 12:50:28;;;;;;;6.95;2.87;;;;;;;21.89;34.21;100769.01;1718927;80;21378;-83
2023/10/12 12:53:35;;;;;;;10.00;4.12;;;;;;;21.67;34.50;100765.38;1719557;81;21322;-83
2023/10/12 12:56:42;;;;;;;10.23;4.55;;;;;;;21.65;34.57;100773.14;1669317;84;22377;-83
2023/10/12 12:59:47;;;;;;;11.03;3.95;;;;;;;21.74;34.66;100761.12;1667826;83;21354;-83
2023/10/12 13:03:00;;;;;;;5.90;3.45;;;;;;;21.86;34.75;100746.65;1677127;84;21983;-84
2023/10/12 13:06:07;;;;;;;8.18;4.20;;;;;;;21.81;34.85;100748.47;1682022;83;21952;-84
2023/10/12 13:09:28;;;;;;;4.15;2.58;;;;;;;21.74;35.15;100750.50;1709290;83;21345;-84
2023/10/12 13:12:18;;;;;;;12.63;2.12;;;;;;;21.82;35.05;100733.45;1704192;81;21372;-83
2023/10/12 13:15:24;;;;;;;6.85;2.55;;;;;;;21.54;35.60;100737.75;1708673;81;21360;-83
2023/10/12 13:18:29;;;;;;;5.05;2.10;;;;;;;21.71;35.40;100731.51;1714160;80;21347;-83
2023/10/12 13:21:41;;;;;;;9.50;3.27;;;;;;;21.88;35.22;100729.72;1707000;81;21330;-83
2023/10/12 13:24:42;;;;;;;7.90;2.65;;;;;;;22.01;35.02;100716.09;1689831;82;21347;-82
2023/10/12 13:27:51;;;;;;;6.40;2.35;;;;;;;22.03;35.12;100710.59;1690260;82;21371;-82
2023/10/12 13:30:56;;;;;;;7.17;2.08;;;;;;;22.15;35.08;100721.75;1712239;80;21975;-83
2023/10/12 13:34:05;;;;;;;5.75;2.90;;;;;;;22.18;35.17;100712.37;1715654;80;21358;-83
2023/10/12 13:37:09;;;;;;;6.62;2.55;;;;;;;22.11;35.29;100708.88;1716428;80;21302;-83
2023/10/12 13:40:16;;;;;;;5.92;2.52;;;;;;;22.11;35.09;100710.27;1712097;83;21943;-83
2023/10/12 13:43:22;;;;;;;3.60;2.02;;;;;;;22.18;35.02;100704.02;1713874;83;21366;-83
2023/10/12 13:46:30;;;;;;;6.78;2.33;;;;;;;22.17;34.95;100712.63;1718960;82;21344;-84
2023/10/12 13:49:37;;;;;;;5.65;2.55;;;;;;;22.26;34.78;100715.89;1713923;82;21357;-83
2023/10/12 13:52:42;;;;;;;5.17;2.50;;;;;;;22.26;34.84;100717.28;1723004;80;21385;-83
2023/10/12 13:55:50;;;;;;;4.35;2.10;;;;;;;22.11;35.03;100713.05;1744369;82;21326;-83
2023/10/12 13:59:00;;;;;;;5.90;2.10;;;;;;;22.16;34.88;100713.17;1729066;81;21332;-83
2023/10/12 14:02:09;;;;;;;3.83;1.87;;;;;;;22.16;34.81;100706.72;1712377;80;21634;-83
2023/10/12 14:05:24;;;;;;;5.55;2.12;;;;;;;22.19;34.76;100707.09;1696674;81;22673;-82
2023/10/12 14:08:22;;;;;;;6.47;2.33;;;;;;;22.19;34.77;100716.84;1725836;80;21307;-82
2023/10/12 14:11:27;;;;;;;4.30;2.17;;;;;;;22.25;34.71;100703.88;1718557;80;21362;-83
2023/10/12 14:14:33;;;;;;;8.73;2.50;;;;;;;22.13;34.80;100699.72;1710713;82;21408;-83
2023/10/12 14:17:39;;;;;;;3.47;2.20;;;;;;;22.03;34.85;100698.05;1729054;80;21339;-83
2023/10/12 14:20:45;;;;;;;6.03;2.40;;;;;;;21.90;35.02;100698.30;1726454;80;21361;-83
2023/10/12 14:23:58;;;;;;;16.75;3.08;;;;;;;21.55;35.54;100694.94;1712665;82;21377;-83
2023/10/12 14:27:01;;;;;;;5.40;2.47;;;;;;;21.63;35.53;100693.72;1710244;83;21354;-83
2023/10/12 14:30:13;;;;;;;7.70;2.95;;;;;;;21.53;35.67;100694.31;1723234;80;21314;-83
2023/10/12 14:33:19;;;;;;;6.28;2.47;;;;;;;21.54;35.71;100690.44;1725564;80;21413;-83
2023/10/12 14:36:23;;;;;;;5.70;2.58;;;;;;;21.44;35.87;100689.63;1727173;82;21350;-83
2023/10/12 14:39:31;;;;;;;5.35;2.45;;;;;;;21.20;36.32;100678.12;1683269;83;21937;-83
2023/10/12 14:42:41;;;;;;;6.80;2.62;;;;;;;21.13;36.50;100669.88;1683556;83;21417;-83
2023/10/12 14:45:56;;;;;;;8.83;2.35;;;;;;;20.99;36.69;100678.13;1709331;80;21318;-82
2023/10/12 14:49:03;;;;;;;6.87;2.52;;;;;;;20.90;36.80;100683.16;1714928;80;21342;-83
2023/10/12 14:52:13;;;;;;;4.37;2.02;;;;;;;20.80;36.98;100680.64;1732876;80;21326;-82
2023/10/12 14:55:20;;;;;;;5.83;2.95;;;;;;;20.75;37.00;100676.30;1736090;82;21393;-82
2023/10/12 14:58:26;;;;;;;11.50;4.47;;;;;;;20.72;37.18;100678.17;1739551;82;21643;-82
2023/10/12 15:01:32;;;;;;;19.12;6.97;;;;;;;20.57;37.48;100673.03;1738396;81;21429;-82
2023/10/12 15:04:41;;;;;;;12.03;5.30;;;;;;;20.17;38.06;100665.97;1727462;80;21282;-82
2023/10/12 15:07:48;;;;;;;15.63;4.22;;;;;;;20.13;38.30;100672.22;1711272;80;21401;-82
2023/10/12 15:10:53;;;;;;;8.58;3.70;;;;;;;20.11;38.38;100666.91;1740960;80;21346;-83
2023/10/12 15:14:00;;;;;;;5.85;3.65;;;;;;;20.08;38.40;100668.73;1742380;80;21373;-82
2023/10/12 15:17:06;;;;;;;11.50;3.42;;;;;;;20.08;38.40;100670.13;1737193;80;21349;-82
2023/10/12 15:20:18;;;;;;;8.20;3.67;;;;;;;20.05;38.35;100672.00;1743101;80;21287;-82
2023/10/12 15:23:27;;;;;;;8.48;4.28;;;;;;;19.96;38.49;100668.36;1723944;80;21215;-82
2023/10/12 15:26:33;;;;;;;9.13;4.15;;;;;;;20.09;38.27;100669.59;1740786;80;21329;-82